sensor_id;sensor_type;location;lat;lon;timestamp;pressure;altitude;pressure_sealevel;temperature;humidity
59757;BME280;45631;51.962;5.974;2023-01-25T00:01:02;103651.66;;;-0.16;100.00
59757;BME280;45631;51.962;5.974;2023-01-25T00:03:31;103645.63;;;-0.15;100.00
59757;BME280;45631;51.962;5.974;2023-01-25T00:05:59;103646.56;;;-0.11;100.00
59757;BME280;45631;51.962;5.974;2023-01-25T00:08:28;103638.00;;;-0.09;100.00
59757;BME280;45631;51.962;5.974;2023-01-25T00:10:56;103643.22;;;-0.07;100.00
59757;BME280;45631;51.962;5.974;2023-01-25T00:13:24;103635.63;;;-0.01;100.00
59757;BME280;45631;51.962;5.974;2023-01-25T00:15:59;103637.44;;;0.03;100.00
59757;BME280;45631;51.962;5.974;2023-01-25T00:18:28;103640.03;;;0.03;100.00
59757;BME280;45631;51.962;5.974;2023-01-25T00:20:56;103631.31;;;-0.01;100.00
59757;BME280;45631;51.962;5.974;2023-01-25T00:23:24;103626.16;;;0.01;100.00
59757;BME280;45631;51.962;5.974;2023-01-25T00:25:55;103629.50;;;-0.03;100.00
59757;BME280;45631;51.962;5.974;2023-01-25T00:28:24;103630.28;;;-0.07;100.00
59757;BME280;45631;51.962;5.974;2023-01-25T00:30:57;103626.97;;;-0.02;100.00
59757;BME280;45631;51.962;5.974;2023-01-25T00:33:37;103619.84;;;-0.12;100.00
59757;BME280;45631;51.962;5.974;2023-01-25T00:36:26;103612.97;;;-0.10;100.00
59757;BME280;45631;51.962;5.974;2023-01-25T00:38:56;103616.50;;;-0.06;100.00
59757;BME280;45631;51.962;5.974;2023-01-25T00:41:24;103612.19;;;-0.06;100.00
59757;BME280;45631;51.962;5.974;2023-01-25T00:43:53;103611.41;;;-0.03;100.00
59757;BME280;45631;51.962;5.974;2023-01-25T00:46:22;103616.50;;;-0.06;100.00
59757;BME280;45631;51.962;5.974;2023-01-25T00:48:52;103612.03;;;-0.13;100.00
59757;BME280;45631;51.962;5.974;2023-01-25T00:51:20;103608.41;;;-0.22;100.00
59757;BME280;45631;51.962;5.974;2023-01-25T00:53:48;103605.75;;;-0.23;100.00
59757;BME280;45631;51.962;5.974;2023-01-25T00:56:17;103608.28;;;-0.25;100.00
59757;BME280;45631;51.962;5.974;2023-01-25T00:58:45;103609.97;;;-0.27;100.00
59757;BME280;45631;51.962;5.974;2023-01-25T01:01:13;103608.22;;;-0.28;100.00
59757;BME280;45631;51.962;5.974;2023-01-25T01:03:43;103605.63;;;-0.28;100.00
59757;BME280;45631;51.962;5.974;2023-01-25T01:06:11;103609.91;;;-0.30;100.00
59757;BME280;45631;51.962;5.974;2023-01-25T01:08:42;103616.03;;;-0.26;100.00
59757;BME280;45631;51.962;5.974;2023-01-25T01:11:11;103605.91;;;-0.17;100.00
59757;BME280;45631;51.962;5.974;2023-01-25T01:13:39;103610.22;;;-0.18;100.00
59757;BME280;45631;51.962;5.974;2023-01-25T01:16:10;103597.13;;;-0.24;100.00
59757;BME280;45631;51.962;5.974;2023-01-25T01:18:40;103608.47;;;-0.19;100.00
59757;BME280;45631;51.962;5.974;2023-01-25T01:21:11;103610.22;;;-0.18;100.00
59757;BME280;45631;51.962;5.974;2023-01-25T01:23:40;103603.25;;;-0.20;100.00
59757;BME280;45631;51.962;5.974;2023-01-25T01:26:11;103605.59;;;-0.29;100.00
59757;BME280;45631;51.962;5.974;2023-01-25T01:28:41;103608.47;;;-0.19;100.00
59757;BME280;45631;51.962;5.974;2023-01-25T01:31:11;103610.13;;;-0.21;100.00
59757;BME280;45631;51.962;5.974;2023-01-25T01:33:40;103614.34;;;-0.26;100.00
59757;BME280;45631;51.962;5.974;2023-01-25T01:36:11;103610.03;;;-0.25;100.00
59757;BME280;45631;51.962;5.974;2023-01-25T01:38:40;103605.56;;;-0.31;100.00
59757;BME280;45631;51.962;5.974;2023-01-25T01:41:09;103611.75;;;-0.26;100.00
59757;BME280;45631;51.962;5.974;2023-01-25T01:43:37;103603.97;;;-0.26;100.00
59757;BME280;45631;51.962;5.974;2023-01-25T01:46:10;103600.66;;;-0.20;100.00
59757;BME280;45631;51.962;5.974;2023-01-25T01:48:44;103598.22;;;-0.14;100.00
59757;BME280;45631;51.962;5.974;2023-01-25T01:51:18;103599.13;;;-0.12;100.00
59757;BME280;45631;51.962;5.974;2023-01-25T01:53:49;103594.75;;;-0.14;100.00
59757;BME280;45631;51.962;5.974;2023-01-25T01:56:23;103596.34;;;-0.20;100.00
59757;BME280;45631;51.962;5.974;2023-01-25T01:58:55;103592.94;;;-0.19;100.00
59757;BME280;45631;51.962;5.974;2023-01-25T02:01:25;103600.56;;;-0.23;100.00
59757;BME280;45631;51.962;5.974;2023-01-25T02:03:54;103595.28;;;-0.28;100.00
59757;BME280;45631;51.962;5.974;2023-01-25T02:06:27;103595.34;;;-0.25;100.00
59757;BME280;45631;51.962;5.974;2023-01-25T02:08:59;103588.53;;;-0.23;100.00
59757;BME280;45631;51.962;5.974;2023-01-25T02:11:29;103585.91;;;-0.24;100.00
59757;BME280;45631;51.962;5.974;2023-01-25T02:14:00;103584.81;;;-0.34;100.00
59757;BME280;45631;51.962;5.974;2023-01-25T02:16:28;103582.06;;;-0.40;100.00
59757;BME280;45631;51.962;5.974;2023-01-25T02:18:58;103574.31;;;-0.40;100.00
59757;BME280;45631;51.962;5.974;2023-01-25T02:21:34;103580.19;;;-0.47;100.00
59757;BME280;45631;51.962;5.974;2023-01-25T02:24:08;103574.22;;;-0.45;100.00
59757;BME280;45631;51.962;5.974;2023-01-25T02:26:39;103573.31;;;-0.45;100.00
59757;BME280;45631;51.962;5.974;2023-01-25T02:29:08;103569.03;;;-0.45;100.00
59757;BME280;45631;51.962;5.974;2023-01-25T02:31:37;103564.78;;;-0.41;100.00
59757;BME280;45631;51.962;5.974;2023-01-25T02:34:05;103565.56;;;-0.45;100.00
59757;BME280;45631;51.962;5.974;2023-01-25T02:36:36;103564.69;;;-0.46;100.00
59757;BME280;45631;51.962;5.974;2023-01-25T02:39:07;103580.41;;;-0.38;100.00
59757;BME280;45631;51.962;5.974;2023-01-25T02:41:37;103570.81;;;-0.42;100.00
59757;BME280;45631;51.962;5.974;2023-01-25T02:44:09;103564.78;;;-0.41;100.00
59757;BME280;45631;51.962;5.974;2023-01-25T02:46:40;103559.56;;;-0.44;100.00
59757;BME280;45631;51.962;5.974;2023-01-25T02:49:09;103564.66;;;-0.47;100.00
59757;BME280;45631;51.962;5.974;2023-01-25T02:51:39;103561.22;;;-0.46;100.00
59757;BME280;45631;51.962;5.974;2023-01-25T02:54:09;103561.00;;;-0.56;100.00
59757;BME280;45631;51.962;5.974;2023-01-25T02:56:38;103554.59;;;-0.70;100.00
59757;BME280;45631;51.962;5.974;2023-01-25T02:59:09;103565.16;;;-0.62;100.00
59757;BME280;45631;51.962;5.974;2023-01-25T03:01:41;103560.91;;;-0.59;100.00
59757;BME280;45631;51.962;5.974;2023-01-25T03:04:10;103566.19;;;-0.56;100.00
59757;BME280;45631;51.962;5.974;2023-01-25T03:06:38;103561.19;;;-0.48;100.00
59757;BME280;45631;51.962;5.974;2023-01-25T03:09:09;103556.94;;;-0.46;100.00
59757;BME280;45631;51.962;5.974;2023-01-25T03:11:37;103551.00;;;-0.42;100.00
59757;BME280;45631;51.962;5.974;2023-01-25T03:14:05;103549.94;;;-0.50;100.00
59757;BME280;45631;51.962;5.974;2023-01-25T03:16:35;103543.13;;;-0.46;100.00
59757;BME280;45631;51.962;5.974;2023-01-25T03:19:03;103537.91;;;-0.48;100.00
59757;BME280;45631;51.962;5.974;2023-01-25T03:21:31;103538.63;;;-0.54;100.00
59757;BME280;45631;51.962;5.974;2023-01-25T03:24:01;103540.44;;;-0.51;100.00
59757;BME280;45631;51.962;5.974;2023-01-25T03:26:29;103534.09;;;-0.64;100.00
59757;BME280;45631;51.962;5.974;2023-01-25T03:29:17;103525.44;;;-0.64;100.00
59757;BME280;45631;51.962;5.974;2023-01-25T03:31:47;103526.41;;;-0.61;100.00
59757;BME280;45631;51.962;5.974;2023-01-25T03:34:16;103520.22;;;-0.68;100.00
59757;BME280;45631;51.962;5.974;2023-01-25T03:36:44;103521.97;;;-0.66;100.00
59757;BME280;45631;51.962;5.974;2023-01-25T03:39:12;103516.59;;;-0.74;100.00
59757;BME280;45631;51.962;5.974;2023-01-25T03:41:40;103516.69;;;-0.70;100.00
59757;BME280;45631;51.962;5.974;2023-01-25T03:44:08;103526.06;;;-0.75;100.00
59757;BME280;45631;51.962;5.974;2023-01-25T03:46:37;103512.25;;;-0.75;100.00
59757;BME280;45631;51.962;5.974;2023-01-25T03:49:07;103520.94;;;-0.73;100.00
59757;BME280;45631;51.962;5.974;2023-01-25T03:51:36;103513.38;;;-0.65;100.00
59757;BME280;45631;51.962;5.974;2023-01-25T03:54:04;103519.41;;;-0.65;100.00
59757;BME280;45631;51.962;5.974;2023-01-25T03:56:34;103514.97;;;-0.71;100.00
59757;BME280;45631;51.962;5.974;2023-01-25T03:59:02;103514.19;;;-0.68;100.00
59757;BME280;45631;51.962;5.974;2023-01-25T04:01:30;103512.56;;;-0.63;100.00
59757;BME280;45631;51.962;5.974;2023-01-25T04:03:58;103508.91;;;-0.71;100.00
59757;BME280;45631;51.962;5.974;2023-01-25T04:06:28;103510.72;;;-0.67;100.00
59757;BME280;45631;51.962;5.974;2023-01-25T04:08:56;103512.94;;;-0.82;100.00
59757;BME280;45631;51.962;5.974;2023-01-25T04:11:25;103504.13;;;-0.91;100.00
59757;BME280;45631;51.962;5.974;2023-01-25T04:13:53;103496.44;;;-0.88;100.00
59757;BME280;45631;51.962;5.974;2023-01-25T04:16:21;103494.84;;;-0.82;100.00
59757;BME280;45631;51.962;5.974;2023-01-25T04:18:49;103488.72;;;-0.86;100.00
59757;BME280;45631;51.962;5.974;2023-01-25T04:21:17;103499.84;;;-0.89;100.00
59757;BME280;45631;51.962;5.974;2023-01-25T04:23:47;103489.31;;;-0.98;100.00
59757;BME280;45631;51.962;5.974;2023-01-25T04:26:15;103487.59;;;-0.97;100.00
59757;BME280;45631;51.962;5.974;2023-01-25T04:28:43;103489.53;;;-0.89;100.00
59757;BME280;45631;51.962;5.974;2023-01-25T04:31:11;103485.50;;;-0.77;100.00
59757;BME280;45631;51.962;5.974;2023-01-25T04:33:40;103476.66;;;-0.87;100.00
59757;BME280;45631;51.962;5.974;2023-01-25T04:36:08;103467.44;;;-0.77;100.00
59757;BME280;45631;51.962;5.974;2023-01-25T04:38:36;103467.41;;;-0.79;100.00
59757;BME280;45631;51.962;5.974;2023-01-25T04:41:09;103467.44;;;-0.77;100.00
59757;BME280;45631;51.962;5.974;2023-01-25T04:43:37;103478.84;;;-0.68;100.00
59757;BME280;45631;51.962;5.974;2023-01-25T04:46:05;103470.28;;;-0.66;100.00
59757;BME280;45631;51.962;5.974;2023-01-25T04:48:33;103475.31;;;-0.71;100.00
59757;BME280;45631;51.962;5.974;2023-01-25T04:51:01;103471.09;;;-0.68;100.00
59757;BME280;45631;51.962;5.974;2023-01-25T04:53:30;103468.47;;;-0.69;100.00
59757;BME280;45631;51.962;5.974;2023-01-25T04:55:58;103462.38;;;-0.71;100.00
59757;BME280;45631;51.962;5.974;2023-01-25T04:58:27;103471.00;;;-0.72;100.00
59757;BME280;45631;51.962;5.974;2023-01-25T05:00:59;103460.00;;;-0.63;100.00
59757;BME280;45631;51.962;5.974;2023-01-25T05:03:28;103459.59;;;-0.80;100.00
59757;BME280;45631;51.962;5.974;2023-01-25T05:05:56;103462.09;;;-0.83;100.00
59757;BME280;45631;51.962;5.974;2023-01-25T05:08:24;103463.63;;;-0.92;100.00
59757;BME280;45631;51.962;5.974;2023-01-25T05:10:53;103457.66;;;-0.89;100.00
59757;BME280;45631;51.962;5.974;2023-01-25T05:13:21;103457.34;;;-1.02;100.00
59757;BME280;45631;51.962;5.974;2023-01-25T05:15:50;103454.75;;;-1.02;100.00
59757;BME280;45631;51.962;5.974;2023-01-25T05:18:18;103448.13;;;-0.92;100.00
59757;BME280;45631;51.962;5.974;2023-01-25T05:20:46;103451.75;;;-0.83;100.00
59757;BME280;45631;51.962;5.974;2023-01-25T05:23:14;103449.09;;;-0.87;100.00
59757;BME280;45631;51.962;5.974;2023-01-25T05:25:43;103451.75;;;-0.83;100.00
59757;BME280;45631;51.962;5.974;2023-01-25T05:28:29;103446.59;;;-0.83;100.00
59757;BME280;45631;51.962;5.974;2023-01-25T05:30:58;103447.38;;;-0.86;100.00
59757;BME280;45631;51.962;5.974;2023-01-25T05:33:26;103448.41;;;-0.79;100.00
59757;BME280;45631;51.962;5.974;2023-01-25T05:35:55;103454.34;;;-0.83;100.00
59757;BME280;45631;51.962;5.974;2023-01-25T05:38:24;103448.38;;;-0.81;100.00
59757;BME280;45631;51.962;5.974;2023-01-25T05:40:56;103448.28;;;-0.86;100.00
59757;BME280;45631;51.962;5.974;2023-01-25T05:43:24;103441.13;;;-0.96;100.00
59757;BME280;45631;51.962;5.974;2023-01-25T05:45:53;103443.72;;;-0.96;100.00
59757;BME280;45631;51.962;5.974;2023-01-25T05:48:22;103444.63;;;-0.94;100.00
59757;BME280;45631;51.962;5.974;2023-01-25T05:50:50;103449.00;;;-0.91;100.00
59757;BME280;45631;51.962;5.974;2023-01-25T05:53:23;103448.28;;;-0.86;100.00
59757;BME280;45631;51.962;5.974;2023-01-25T05:55:52;103450.91;;;-0.84;100.00
59757;BME280;45631;51.962;5.974;2023-01-25T05:58:20;103446.63;;;-0.82;100.00
59757;BME280;45631;51.962;5.974;2023-01-25T06:00:48;103442.97;;;-0.90;100.00
59757;BME280;45631;51.962;5.974;2023-01-25T06:03:16;103449.91;;;-0.89;100.00
59757;BME280;45631;51.962;5.974;2023-01-25T06:05:46;103453.41;;;-0.87;100.00
59757;BME280;45631;51.962;5.974;2023-01-25T06:08:14;103455.78;;;-0.95;100.00
59757;BME280;45631;51.962;5.974;2023-01-25T06:10:42;103456.38;;;-1.05;100.00
59757;BME280;45631;51.962;5.974;2023-01-25T06:13:10;103452.22;;;-1.00;100.00
59757;BME280;45631;51.962;5.974;2023-01-25T06:15:40;103445.50;;;-0.93;100.00
59757;BME280;45631;51.962;5.974;2023-01-25T06:18:09;103447.28;;;-0.91;100.00
59757;BME280;45631;51.962;5.974;2023-01-25T06:20:37;103450.66;;;-0.93;100.00
59757;BME280;45631;51.962;5.974;2023-01-25T06:23:06;103443.72;;;-0.96;100.00
59757;BME280;45631;51.962;5.974;2023-01-25T06:25:34;103449.63;;;-1.00;100.00
59757;BME280;45631;51.962;5.974;2023-01-25T06:28:03;103450.53;;;-0.99;100.00
59757;BME280;45631;51.962;5.974;2023-01-25T06:30:31;103453.94;;;-1.00;100.00
59757;BME280;45631;51.962;5.974;2023-01-25T06:33:00;103454.69;;;-1.05;100.00
59757;BME280;45631;51.962;5.974;2023-01-25T06:35:30;103455.59;;;-1.03;100.00
59757;BME280;45631;51.962;5.974;2023-01-25T06:37:59;103454.81;;;-1.00;100.00
59757;BME280;45631;51.962;5.974;2023-01-25T06:40:29;103458.31;;;-0.98;100.00
59757;BME280;45631;51.962;5.974;2023-01-25T06:43:05;103447.88;;;-1.01;100.00
59757;BME280;45631;51.962;5.974;2023-01-25T06:45:33;103444.16;;;-1.12;100.00
59757;BME280;45631;51.962;5.974;2023-01-25T06:48:01;103449.53;;;-1.05;100.00
59757;BME280;45631;51.962;5.974;2023-01-25T06:50:30;103446.94;;;-1.05;100.00
59757;BME280;45631;51.962;5.974;2023-01-25T06:52:58;103442.72;;;-1.01;100.00
59757;BME280;45631;51.962;5.974;2023-01-25T06:55:26;103443.41;;;-1.08;100.00
59757;BME280;45631;51.962;5.974;2023-01-25T06:57:59;103447.75;;;-1.07;100.00
59757;BME280;45631;51.962;5.974;2023-01-25T07:00:27;103444.34;;;-1.06;100.00
59757;BME280;45631;51.962;5.974;2023-01-25T07:02:55;103434.91;;;-1.04;100.00
59757;BME280;45631;51.962;5.974;2023-01-25T07:05:24;103434.00;;;-1.06;100.00
59757;BME280;45631;51.962;5.974;2023-01-25T07:07:52;103432.47;;;-0.98;100.00
59757;BME280;45631;51.962;5.974;2023-01-25T07:10:20;103443.16;;;-1.17;100.00
59757;BME280;45631;51.962;5.974;2023-01-25T07:12:48;103445.75;;;-1.17;100.00
59757;BME280;45631;51.962;5.974;2023-01-25T07:15:17;103444.06;;;-1.17;100.00
59757;BME280;45631;51.962;5.974;2023-01-25T07:17:45;103442.66;;;-1.04;100.00
59757;BME280;45631;51.962;5.974;2023-01-25T07:20:14;103444.28;;;-1.08;100.00
59757;BME280;45631;51.962;5.974;2023-01-25T07:22:42;103440.13;;;-1.01;100.00
59757;BME280;45631;51.962;5.974;2023-01-25T07:25:10;103430.78;;;-0.96;100.00
59757;BME280;45631;51.962;5.974;2023-01-25T07:27:38;103427.22;;;-1.01;100.00
59757;BME280;45631;51.962;5.974;2023-01-25T07:30:07;103427.97;;;-1.05;100.00
59757;BME280;45631;51.962;5.974;2023-01-25T07:32:37;103422.16;;;-0.98;100.00
59757;BME280;45631;51.962;5.974;2023-01-25T07:35:06;103416.22;;;-0.94;100.00
59757;BME280;45631;51.962;5.974;2023-01-25T07:37:34;103418.97;;;-0.86;100.00
59757;BME280;45631;51.962;5.974;2023-01-25T07:40:03;103420.69;;;-0.87;100.00
59757;BME280;45631;51.962;5.974;2023-01-25T07:42:31;103413.00;;;-0.83;100.00
59757;BME280;45631;51.962;5.974;2023-01-25T07:45:00;103424.09;;;-0.88;100.00
59757;BME280;45631;51.962;5.974;2023-01-25T07:47:28;103419.75;;;-0.89;100.00
59757;BME280;45631;51.962;5.974;2023-01-25T07:49:57;103417.31;;;-0.84;100.00
59757;BME280;45631;51.962;5.974;2023-01-25T07:52:25;103416.47;;;-0.83;100.00
59757;BME280;45631;51.962;5.974;2023-01-25T07:54:53;103413.94;;;-0.80;100.00
59757;BME280;45631;51.962;5.974;2023-01-25T07:57:22;103412.31;;;-0.76;100.00
59757;BME280;45631;51.962;5.974;2023-01-25T07:59:51;103405.47;;;-0.74;100.00
59757;BME280;45631;51.962;5.974;2023-01-25T08:02:19;103410.41;;;-0.83;100.00
59757;BME280;45631;51.962;5.974;2023-01-25T08:04:47;103404.34;;;-0.86;100.00
59757;BME280;45631;51.962;5.974;2023-01-25T08:07:18;103406.13;;;-0.83;100.00
59757;BME280;45631;51.962;5.974;2023-01-25T08:09:49;103406.81;;;-0.90;100.00
59757;BME280;45631;51.962;5.974;2023-01-25T08:12:17;103407.69;;;-0.90;100.00
59757;BME280;45631;51.962;5.974;2023-01-25T08:14:45;103400.88;;;-0.86;100.00
59757;BME280;45631;51.962;5.974;2023-01-25T08:17:15;103396.44;;;-0.92;100.00
59757;BME280;45631;51.962;5.974;2023-01-25T08:19:43;103396.38;;;-0.95;100.00
59757;BME280;45631;51.962;5.974;2023-01-25T08:22:11;103398.94;;;-0.96;100.00
59757;BME280;45631;51.962;5.974;2023-01-25T08:24:41;103401.66;;;-0.89;100.00
59757;BME280;45631;51.962;5.974;2023-01-25T08:27:09;103395.63;;;-0.89;100.00
59757;BME280;45631;51.962;5.974;2023-01-25T08:29:37;103398.16;;;-0.92;100.00
59757;BME280;45631;51.962;5.974;2023-01-25T08:32:05;103398.97;;;-0.95;100.00
59757;BME280;45631;51.962;5.974;2023-01-25T08:34:34;103405.91;;;-0.92;100.00
59757;BME280;45631;51.962;5.974;2023-01-25T08:37:02;103400.72;;;-0.94;100.00
59757;BME280;45631;51.962;5.974;2023-01-25T08:39:30;103392.97;;;-0.94;100.00
59757;BME280;45631;51.962;5.974;2023-01-25T08:41:59;103402.44;;;-0.93;100.00
59757;BME280;45631;51.962;5.974;2023-01-25T08:44:28;103395.56;;;-0.92;100.00
59757;BME280;45631;51.962;5.974;2023-01-25T08:46:56;103392.34;;;-0.82;100.00
59757;BME280;45631;51.962;5.974;2023-01-25T08:49:24;103387.25;;;-0.80;100.00
59757;BME280;45631;51.962;5.974;2023-01-25T08:51:53;103386.28;;;-0.84;100.00
59757;BME280;45631;51.962;5.974;2023-01-25T08:54:21;103392.28;;;-0.85;100.00
59757;BME280;45631;51.962;5.974;2023-01-25T08:56:50;103385.47;;;-0.83;100.00
59757;BME280;45631;51.962;5.974;2023-01-25T08:59:19;103382.72;;;-0.89;100.00
59757;BME280;45631;51.962;5.974;2023-01-25T09:01:48;103378.38;;;-0.90;100.00
59757;BME280;45631;51.962;5.974;2023-01-25T09:04:16;103374.06;;;-0.91;100.00
59757;BME280;45631;51.962;5.974;2023-01-25T09:06:44;103368.16;;;-0.86;100.00
59757;BME280;45631;51.962;5.974;2023-01-25T09:09:12;103373.47;;;-0.79;100.00
59757;BME280;45631;51.962;5.974;2023-01-25T09:11:40;103360.63;;;-0.76;100.00
59757;BME280;45631;51.962;5.974;2023-01-25T09:14:08;103375.00;;;-0.88;100.00
59757;BME280;45631;51.962;5.974;2023-01-25T09:16:38;103360.47;;;-0.82;100.00
59757;BME280;45631;51.962;5.974;2023-01-25T09:19:06;103364.56;;;-0.92;100.00
59757;BME280;45631;51.962;5.974;2023-01-25T09:21:34;103358.69;;;-0.85;100.00
59757;BME280;45631;51.962;5.974;2023-01-25T09:24:03;103360.47;;;-0.82;100.00
59757;BME280;45631;51.962;5.974;2023-01-25T09:26:36;103355.94;;;-0.93;100.00
59757;BME280;45631;51.962;5.974;2023-01-25T09:29:05;103360.19;;;-0.95;100.00
59757;BME280;45631;51.962;5.974;2023-01-25T09:31:36;103362.78;;;-0.95;100.00
59757;BME280;45631;51.962;5.974;2023-01-25T09:34:08;103352.50;;;-0.92;100.00
59757;BME280;45631;51.962;5.974;2023-01-25T09:36:37;103359.47;;;-0.89;100.00
59757;BME280;45631;51.962;5.974;2023-01-25T09:39:05;103357.69;;;-0.92;100.00
59757;BME280;45631;51.962;5.974;2023-01-25T09:44:40;103363.59;;;-0.97;100.00
59757;BME280;45631;51.962;5.974;2023-01-25T09:47:16;103361.03;;;-0.96;100.00
59757;BME280;45631;51.962;5.974;2023-01-25T09:49:59;103361.91;;;-0.95;100.00
59757;BME280;45631;51.962;5.974;2023-01-25T09:53:02;103355.72;;;-1.02;100.00
59757;BME280;45631;51.962;5.974;2023-01-25T09:55:34;103354.28;;;-0.89;100.00
59757;BME280;45631;51.962;5.974;2023-01-25T09:58:02;103348.25;;;-0.90;100.00
59757;BME280;45631;51.962;5.974;2023-01-25T10:00:34;103344.00;;;-0.88;100.00
59757;BME280;45631;51.962;5.974;2023-01-25T10:03:10;103343.50;;;-0.71;100.00
59757;BME280;45631;51.962;5.974;2023-01-25T10:05:44;103340.63;;;-0.83;100.00
59757;BME280;45631;51.962;5.974;2023-01-25T10:08:17;103345.78;;;-0.85;100.00
59757;BME280;45631;51.962;5.974;2023-01-25T10:10:50;103347.47;;;-0.87;100.00
59757;BME280;45631;51.962;5.974;2023-01-25T10:13:22;103351.69;;;-0.91;100.00
59757;BME280;45631;51.962;5.974;2023-01-25T10:15:54;103344.94;;;-0.84;100.00
59757;BME280;45631;51.962;5.974;2023-01-25T10:18:27;103344.97;;;-0.82;100.00
59757;BME280;45631;51.962;5.974;2023-01-25T10:21:00;103344.03;;;-0.86;100.00
59757;BME280;45631;51.962;5.974;2023-01-25T10:23:44;103336.34;;;-0.83;100.00
59757;BME280;45631;51.962;5.974;2023-01-25T10:26:21;103331.31;;;-0.77;100.00
59757;BME280;45631;51.962;5.974;2023-01-25T10:28:56;103326.13;;;-0.78;100.00
59757;BME280;45631;51.962;5.974;2023-01-25T10:31:33;103326.13;;;-0.77;100.00
59757;BME280;45631;51.962;5.974;2023-01-25T10:34:13;103327.06;;;-0.75;100.00
59757;BME280;45631;51.962;5.974;2023-01-25T10:36:48;103308.75;;;-0.86;100.00
59757;BME280;45631;51.962;5.974;2023-01-25T10:39:18;103303.69;;;-0.79;100.00
59757;BME280;45631;51.962;5.974;2023-01-25T10:41:49;103303.78;;;-0.76;100.00
59757;BME280;45631;51.962;5.974;2023-01-25T10:44:18;103291.78;;;-0.73;100.00
59757;BME280;45631;51.962;5.974;2023-01-25T10:46:56;103288.31;;;-0.73;100.00
59757;BME280;45631;51.962;5.974;2023-01-25T10:49:31;103284.97;;;-0.69;100.00
59757;BME280;45631;51.962;5.974;2023-01-25T10:52:14;103275.56;;;-0.65;100.00
59757;BME280;45631;51.962;5.974;2023-01-25T10:54:43;103272.94;;;-0.67;100.00
59757;BME280;45631;51.962;5.974;2023-01-25T10:57:15;103269.69;;;-0.57;100.00
59757;BME280;45631;51.962;5.974;2023-01-25T10:59:45;103264.53;;;-0.57;100.00
59757;BME280;45631;51.962;5.974;2023-01-25T11:02:38;103261.00;;;-0.60;100.00
59757;BME280;45631;51.962;5.974;2023-01-25T11:05:26;103255.72;;;-0.66;100.00
59757;BME280;45631;51.962;5.974;2023-01-25T11:07:57;103245.50;;;-0.60;100.00
59757;BME280;45631;51.962;5.974;2023-01-25T11:10:31;103233.47;;;-0.60;100.00
59757;BME280;45631;51.962;5.974;2023-01-25T11:13:21;103227.53;;;-0.54;100.00
59757;BME280;45631;51.962;5.974;2023-01-25T11:15:51;103227.59;;;-0.49;100.00
59757;BME280;45631;51.962;5.974;2023-01-25T11:18:22;103228.44;;;-0.51;100.00
59757;BME280;45631;51.962;5.974;2023-01-25T11:21:04;103214.72;;;-0.46;100.00
59757;BME280;45631;51.962;5.974;2023-01-25T11:23:34;103213.78;;;-0.53;100.00
59757;BME280;45631;51.962;5.974;2023-01-25T11:26:16;103209.50;;;-0.49;100.00
59757;BME280;45631;51.962;5.974;2023-01-25T11:28:45;103197.38;;;-0.54;100.00
59757;BME280;45631;51.962;5.974;2023-01-25T11:31:18;103194.13;;;-0.43;100.00
59757;BME280;45631;51.962;5.974;2023-01-25T11:33:47;103187.25;;;-0.41;100.00
59757;BME280;45631;51.962;5.974;2023-01-25T11:36:23;103189.03;;;-0.37;100.00
59757;BME280;45631;51.962;5.974;2023-01-25T11:41:57;103171.81;;;-0.38;100.00
59757;BME280;45631;51.962;5.974;2023-01-25T11:44:53;103173.53;;;-0.37;100.00
59757;BME280;45631;51.962;5.974;2023-01-25T11:47:37;103157.81;;;-0.49;100.00
59757;BME280;45631;51.962;5.974;2023-01-25T11:50:14;103147.97;;;-0.69;100.00
59757;BME280;45631;51.962;5.974;2023-01-25T11:52:58;103139.28;;;-0.73;100.00
59757;BME280;45631;51.962;5.974;2023-01-25T11:55:33;103130.47;;;-0.84;100.00
59757;BME280;45631;51.962;5.974;2023-01-25T11:58:18;103130.53;;;-0.79;100.00
59757;BME280;45631;51.962;5.974;2023-01-25T12:01:04;103123.09;;;-0.64;100.00
59757;BME280;45631;51.962;5.974;2023-01-25T12:03:53;103121.41;;;-0.60;100.00
59757;BME280;45631;51.962;5.974;2023-01-25T12:06:32;103113.06;;;-0.45;100.00
59757;BME280;45631;51.962;5.974;2023-01-25T12:09:22;103109.50;;;-0.51;100.00
59757;BME280;45631;51.962;5.974;2023-01-25T12:12:09;103094.91;;;-0.48;100.00
59757;BME280;45631;51.962;5.974;2023-01-25T12:14:49;103092.38;;;-0.45;100.00
59757;BME280;45631;51.962;5.974;2023-01-25T12:17:31;103088.91;;;-0.47;100.00
59757;BME280;45631;51.962;5.974;2023-01-25T12:20:20;103087.81;;;-0.60;100.00
59757;BME280;45631;51.962;5.974;2023-01-25T12:23:08;103077.75;;;-0.45;100.00
59757;BME280;45631;51.962;5.974;2023-01-25T12:25:50;103069.78;;;-0.57;100.00
59757;BME280;45631;51.962;5.974;2023-01-25T12:28:26;103059.50;;;-0.54;100.00
59757;BME280;45631;51.962;5.974;2023-01-25T12:31:00;103057.69;;;-0.58;100.00
59757;BME280;45631;51.962;5.974;2023-01-25T12:33:33;103055.94;;;-0.61;100.00
59757;BME280;45631;51.962;5.974;2023-01-25T12:36:03;103047.34;;;-0.60;100.00
59757;BME280;45631;51.962;5.974;2023-01-25T12:38:38;103045.59;;;-0.61;100.00
59757;BME280;45631;51.962;5.974;2023-01-25T12:41:18;103030.28;;;-0.48;100.00
59757;BME280;45631;51.962;5.974;2023-01-25T12:43:55;103027.66;;;-0.50;100.00
59757;BME280;45631;51.962;5.974;2023-01-25T12:46:27;103029.41;;;-0.49;100.00
59757;BME280;45631;51.962;5.974;2023-01-25T12:48:59;103021.56;;;-0.54;100.00
59757;BME280;45631;51.962;5.974;2023-01-25T12:51:35;103023.13;;;-0.65;100.00
59757;BME280;45631;51.962;5.974;2023-01-25T12:54:13;103021.34;;;-0.69;100.00
59757;BME280;45631;51.962;5.974;2023-01-25T12:56:48;103015.31;;;-0.68;100.00
59757;BME280;45631;51.962;5.974;2023-01-25T12:59:29;103004.94;;;-0.70;100.00
59757;BME280;45631;51.962;5.974;2023-01-25T13:02:12;103007.66;;;-0.62;100.00
59757;BME280;45631;51.962;5.974;2023-01-25T13:04:58;103011.19;;;-0.57;100.00
59757;BME280;45631;51.962;5.974;2023-01-25T13:07:34;102998.78;;;-0.78;100.00